sensor_id;sensor_type;location;lat;lon;timestamp;pressure;altitude;pressure_sealevel;temperature;humidity
53011;BME280;42803;55.762;38.084;2023-02-17T00:00:24;100387.63;;;-8.64;100.00
53011;BME280;42803;55.762;38.084;2023-02-17T00:02:54;100381.66;;;-8.65;100.00
53011;BME280;42803;55.762;38.084;2023-02-17T00:05:24;100381.22;;;-8.62;100.00
53011;BME280;42803;55.762;38.084;2023-02-17T00:07:58;100379.13;;;-8.65;100.00
53011;BME280;42803;55.762;38.084;2023-02-17T00:10:27;100380.72;;;-8.65;100.00
53011;BME280;42803;55.762;38.084;2023-02-17T00:12:56;100372.84;;;-8.67;100.00
53011;BME280;42803;55.762;38.084;2023-02-17T00:15:25;100381.13;;;-8.68;100.00
53011;BME280;42803;55.762;38.084;2023-02-17T00:17:54;100386.44;;;-8.66;100.00
53011;BME280;42803;55.762;38.084;2023-02-17T00:20:23;100379.28;;;-8.69;100.00
53011;BME280;42803;55.762;38.084;2023-02-17T00:22:52;100376.44;;;-8.76;100.00
53011;BME280;42803;55.762;38.084;2023-02-17T00:25:22;100380.28;;;-8.78;100.00
53011;BME280;42803;55.762;38.084;2023-02-17T00:27:51;100378.97;;;-8.76;100.00
53011;BME280;42803;55.762;38.084;2023-02-17T00:30:20;100380.81;;;-8.75;100.00
53011;BME280;42803;55.762;38.084;2023-02-17T00:32:50;100370.69;;;-8.75;100.00
53011;BME280;42803;55.762;38.084;2023-02-17T00:35:19;100370.69;;;-8.75;100.00
53011;BME280;42803;55.762;38.084;2023-02-17T00:37:48;100364.00;;;-8.74;100.00
53011;BME280;42803;55.762;38.084;2023-02-17T00:40:17;100362.69;;;-8.72;100.00
53011;BME280;42803;55.762;38.084;2023-02-17T00:42:47;100367.47;;;-8.74;100.00
53011;BME280;42803;55.762;38.084;2023-02-17T00:45:17;100359.63;;;-8.75;100.00
53011;BME280;42803;55.762;38.084;2023-02-17T00:47:47;100366.13;;;-8.72;100.00
53011;BME280;42803;55.762;38.084;2023-02-17T00:50:17;100359.72;;;-8.70;100.00
53011;BME280;42803;55.762;38.084;2023-02-17T00:52:46;100368.50;;;-8.68;100.00
53011;BME280;42803;55.762;38.084;2023-02-17T00:55:15;100365.44;;;-8.71;100.00
53011;BME280;42803;55.762;38.084;2023-02-17T00:57:45;100363.84;;;-8.70;100.00
53011;BME280;42803;55.762;38.084;2023-02-17T01:00:16;100362.69;;;-8.72;100.00
53011;BME280;42803;55.762;38.084;2023-02-17T01:02:45;100365.22;;;-8.72;100.00
53011;BME280;42803;55.762;38.084;2023-02-17T01:05:16;100369.34;;;-8.73;100.00
53011;BME280;42803;55.762;38.084;2023-02-17T01:07:46;100366.13;;;-8.72;100.00
53011;BME280;42803;55.762;38.084;2023-02-17T01:10:15;100373.03;;;-8.71;100.00
53011;BME280;42803;55.762;38.084;2023-02-17T01:12:44;100375.84;;;-8.69;100.00
53011;BME280;42803;55.762;38.084;2023-02-17T01:15:14;100375.84;;;-8.69;100.00
53011;BME280;42803;55.762;38.084;2023-02-17T01:17:44;100374.06;;;-8.65;100.00
53011;BME280;42803;55.762;38.084;2023-02-17T01:20:13;100374.56;;;-8.62;100.00
53011;BME280;42803;55.762;38.084;2023-02-17T01:22:42;100369.97;;;-8.59;100.00
53011;BME280;42803;55.762;38.084;2023-02-17T01:25:11;100372.50;;;-8.59;100.00
53011;BME280;42803;55.762;38.084;2023-02-17T01:27:40;100370.66;;;-8.60;100.00
53011;BME280;42803;55.762;38.084;2023-02-17T01:30:10;100370.47;;;-8.55;100.00
53011;BME280;42803;55.762;38.084;2023-02-17T01:32:41;100367.44;;;-8.59;100.00
53011;BME280;42803;55.762;38.084;2023-02-17T01:35:10;100366.53;;;-8.59;100.00
53011;BME280;42803;55.762;38.084;2023-02-17T01:37:39;100356.84;;;-8.62;100.00
53011;BME280;42803;55.762;38.084;2023-02-17T01:40:10;100361.22;;;-8.61;100.00
53011;BME280;42803;55.762;38.084;2023-02-17T01:42:39;100351.28;;;-8.65;100.00
53011;BME280;42803;55.762;38.084;2023-02-17T01:45:40;100347.81;;;-8.65;100.00
53011;BME280;42803;55.762;38.084;2023-02-17T01:48:17;100350.34;;;-8.65;100.00
53011;BME280;42803;55.762;38.084;2023-02-17T01:50:48;100353.81;;;-8.65;100.00
53011;BME280;42803;55.762;38.084;2023-02-17T01:53:19;100352.63;;;-8.67;100.00
53011;BME280;42803;55.762;38.084;2023-02-17T01:55:53;100354.50;;;-8.66;100.00
53011;BME280;42803;55.762;38.084;2023-02-17T01:58:24;100354.50;;;-8.66;100.00
53011;BME280;42803;55.762;38.084;2023-02-17T02:00:55;100357.94;;;-8.65;100.00
53011;BME280;42803;55.762;38.084;2023-02-17T02:03:31;100357.03;;;-8.66;100.00
53011;BME280;42803;55.762;38.084;2023-02-17T02:06:03;100363.00;;;-8.65;100.00
53011;BME280;42803;55.762;38.084;2023-02-17T02:08:40;100363.94;;;-8.65;100.00
53011;BME280;42803;55.762;38.084;2023-02-17T02:11:11;100363.53;;;-8.62;100.00
53011;BME280;42803;55.762;38.084;2023-02-17T02:13:40;100367.22;;;-8.60;100.00
53011;BME280;42803;55.762;38.084;2023-02-17T02:16:35;100369.31;;;-8.57;100.00
53011;BME280;42803;55.762;38.084;2023-02-17T02:19:22;100370.25;;;-8.57;100.00
53011;BME280;42803;55.762;38.084;2023-02-17T02:22:17;100374.91;;;-8.54;100.00
53011;BME280;42803;55.762;38.084;2023-02-17T02:24:58;100380.00;;;-8.49;100.00
53011;BME280;42803;55.762;38.084;2023-02-17T02:27:44;100379.78;;;-8.50;100.00
53011;BME280;42803;55.762;38.084;2023-02-17T02:33:31;100368.28;;;-8.48;100.00
53011;BME280;42803;55.762;38.084;2023-02-17T02:36:05;100370.13;;;-8.47;100.00
53011;BME280;42803;55.762;38.084;2023-02-17T02:38:40;100366.94;;;-8.46;100.00
53011;BME280;42803;55.762;38.084;2023-02-17T02:41:14;100369.88;;;-8.49;100.00
53011;BME280;42803;55.762;38.084;2023-02-17T02:43:46;100371.09;;;-8.47;100.00
53011;BME280;42803;55.762;38.084;2023-02-17T02:46:15;100363.16;;;-8.54;100.00
53011;BME280;42803;55.762;38.084;2023-02-17T02:48:46;100361.72;;;-8.57;100.00
53011;BME280;42803;55.762;38.084;2023-02-17T02:51:39;100359.25;;;-8.52;100.00
53011;BME280;42803;55.762;38.084;2023-02-17T02:54:18;100368.28;;;-8.48;100.00
53011;BME280;42803;55.762;38.084;2023-02-17T02:57:12;100368.56;;;-8.47;100.00
53011;BME280;42803;55.762;38.084;2023-02-17T02:59:52;100368.09;;;-8.44;100.00
53011;BME280;42803;55.762;38.084;2023-02-17T03:02:39;100367.41;;;-8.43;100.00
53011;BME280;42803;55.762;38.084;2023-02-17T03:05:18;100366.56;;;-8.38;100.00
53011;BME280;42803;55.762;38.084;2023-02-17T03:07:55;100368.44;;;-8.37;100.00
53011;BME280;42803;55.762;38.084;2023-02-17T03:10:27;100361.00;;;-8.41;100.00
53011;BME280;42803;55.762;38.084;2023-02-17T03:12:57;100365.16;;;-8.36;100.00
53011;BME280;42803;55.762;38.084;2023-02-17T03:15:30;100365.16;;;-8.36;100.00
53011;BME280;42803;55.762;38.084;2023-02-17T03:18:01;100360.84;;;-8.37;100.00
53011;BME280;42803;55.762;38.084;2023-02-17T03:20:36;100368.91;;;-8.34;100.00
53011;BME280;42803;55.762;38.084;2023-02-17T03:23:06;100365.69;;;-8.33;100.00
53011;BME280;42803;55.762;38.084;2023-02-17T03:25:36;100363.41;;;-8.31;100.00
53011;BME280;42803;55.762;38.084;2023-02-17T03:28:05;100367.78;;;-8.30;100.00
53011;BME280;42803;55.762;38.084;2023-02-17T03:30:35;100367.34;;;-8.28;100.00
53011;BME280;42803;55.762;38.084;2023-02-17T03:33:05;100370.81;;;-8.27;100.00
53011;BME280;42803;55.762;38.084;2023-02-17T03:35:35;100367.53;;;-8.32;100.00
53011;BME280;42803;55.762;38.084;2023-02-17T03:38:04;100374.47;;;-8.31;100.00
53011;BME280;42803;55.762;38.084;2023-02-17T03:40:33;100374.88;;;-8.34;100.00
53011;BME280;42803;55.762;38.084;2023-02-17T03:43:02;100378.75;;;-8.36;100.00
53011;BME280;42803;55.762;38.084;2023-02-17T03:45:35;100378.91;;;-8.45;100.00
53011;BME280;42803;55.762;38.084;2023-02-17T03:48:04;100379.31;;;-8.48;100.00
53011;BME280;42803;55.762;38.084;2023-02-17T03:50:34;100374.25;;;-8.48;100.00
53011;BME280;42803;55.762;38.084;2023-02-17T03:53:03;100378.91;;;-8.45;100.00
53011;BME280;42803;55.762;38.084;2023-02-17T03:55:33;100371.31;;;-8.45;100.00
53011;BME280;42803;55.762;38.084;2023-02-17T03:58:02;100374.34;;;-8.42;100.00
53011;BME280;42803;55.762;38.084;2023-02-17T04:00:31;100374.34;;;-8.42;100.00
53011;BME280;42803;55.762;38.084;2023-02-17T04:03:00;100383.09;;;-8.40;100.00
53011;BME280;42803;55.762;38.084;2023-02-17T04:05:29;100374.84;;;-8.39;100.00
53011;BME280;42803;55.762;38.084;2023-02-17T04:08:00;100376.22;;;-8.36;100.00
53011;BME280;42803;55.762;38.084;2023-02-17T04:10:29;100378.34;;;-8.33;100.00
53011;BME280;42803;55.762;38.084;2023-02-17T04:12:58;100373.53;;;-8.31;100.00
53011;BME280;42803;55.762;38.084;2023-02-17T04:15:27;100374.47;;;-8.31;100.00
53011;BME280;42803;55.762;38.084;2023-02-17T04:17:57;100373.09;;;-8.29;100.00
53011;BME280;42803;55.762;38.084;2023-02-17T04:20:26;100381.19;;;-8.26;100.00
53011;BME280;42803;55.762;38.084;2023-02-17T04:22:56;100377.72;;;-8.26;100.00
53011;BME280;42803;55.762;38.084;2023-02-17T04:25:26;100373.59;;;-8.26;100.00
53011;BME280;42803;55.762;38.084;2023-02-17T04:27:55;100380.50;;;-8.25;100.00
53011;BME280;42803;55.762;38.084;2023-02-17T04:30:24;100386.06;;;-8.22;100.00
53011;BME280;42803;55.762;38.084;2023-02-17T04:32:53;100385.38;;;-8.21;100.00
53011;BME280;42803;55.762;38.084;2023-02-17T04:35:23;100384.03;;;-8.19;100.00
53011;BME280;42803;55.762;38.084;2023-02-17T04:37:52;100387.91;;;-8.21;100.00
53011;BME280;42803;55.762;38.084;2023-02-17T04:40:21;100389.84;;;-8.14;100.00
53011;BME280;42803;55.762;38.084;2023-02-17T04:42:52;100384.78;;;-8.14;100.00
53011;BME280;42803;55.762;38.084;2023-02-17T04:45:22;100391.44;;;-8.15;100.00
53011;BME280;42803;55.762;38.084;2023-02-17T04:47:51;100386.91;;;-8.12;100.00
53011;BME280;42803;55.762;38.084;2023-02-17T04:50:20;100387.41;;;-8.08;100.00
53011;BME280;42803;55.762;38.084;2023-02-17T04:52:49;100377.41;;;-7.97;100.00
53011;BME280;42803;55.762;38.084;2023-02-17T04:55:18;100373.56;;;-7.90;100.00
53011;BME280;42803;55.762;38.084;2023-02-17T04:57:47;100367.22;;;-7.76;100.00
53011;BME280;42803;55.762;38.084;2023-02-17T05:00:21;100373.66;;;-7.78;100.00
53011;BME280;42803;55.762;38.084;2023-02-17T05:02:51;100377.13;;;-7.78;100.00
53011;BME280;42803;55.762;38.084;2023-02-17T05:05:20;100374.66;;;-7.72;100.00
53011;BME280;42803;55.762;38.084;2023-02-17T05:07:49;100373.34;;;-7.65;100.00
53011;BME280;42803;55.762;38.084;2023-02-17T05:10:19;100370.91;;;-7.53;100.00
53011;BME280;42803;55.762;38.084;2023-02-17T05:12:50;100368.75;;;-7.62;100.00
53011;BME280;42803;55.762;38.084;2023-02-17T05:15:21;100375.06;;;-7.75;100.00
53011;BME280;42803;55.762;38.084;2023-02-17T05:17:50;100378.44;;;-7.86;100.00
53011;BME280;42803;55.762;38.084;2023-02-17T05:20:20;100378.16;;;-7.87;100.00
53011;BME280;42803;55.762;38.084;2023-02-17T05:22:49;100379.59;;;-7.83;100.00
53011;BME280;42803;55.762;38.084;2023-02-17T05:25:18;100378.72;;;-7.78;100.00
53011;BME280;42803;55.762;38.084;2023-02-17T05:27:47;100385.16;;;-7.80;100.00
53011;BME280;42803;55.762;38.084;2023-02-17T05:30:17;100387.00;;;-7.79;100.00
53011;BME280;42803;55.762;38.084;2023-02-17T05:32:47;100375.06;;;-7.75;100.00
53011;BME280;42803;55.762;38.084;2023-02-17T05:35:16;100365.44;;;-7.72;100.00
53011;BME280;42803;55.762;38.084;2023-02-17T05:37:45;100369.81;;;-7.71;100.00
53011;BME280;42803;55.762;38.084;2023-02-17T05:40:14;100376.06;;;-7.69;100.00
53011;BME280;42803;55.762;38.084;2023-02-17T05:42:43;100375.19;;;-7.64;100.00
53011;BME280;42803;55.762;38.084;2023-02-17T05:45:12;100377.53;;;-7.60;100.00
53011;BME280;42803;55.762;38.084;2023-02-17T05:47:42;100373.88;;;-7.56;100.00
53011;BME280;42803;55.762;38.084;2023-02-17T05:50:12;100378.81;;;-7.46;100.00
53011;BME280;42803;55.762;38.084;2023-02-17T05:52:42;100369.41;;;-7.42;100.00
53011;BME280;42803;55.762;38.084;2023-02-17T05:55:13;100377.09;;;-6.98;100.00
53011;BME280;42803;55.762;38.084;2023-02-17T05:57:42;100376.97;;;-6.83;100.00
53011;BME280;42803;55.762;38.084;2023-02-17T06:00:12;100377.13;;;-6.60;100.00
53011;BME280;42803;55.762;38.084;2023-02-17T06:02:41;100379.00;;;-6.59;100.00
53011;BME280;42803;55.762;38.084;2023-02-17T06:05:12;100385.28;;;-6.46;100.00
53011;BME280;42803;55.762;38.084;2023-02-17T06:07:42;100380.78;;;-6.70;100.00
53011;BME280;42803;55.762;38.084;2023-02-17T06:10:12;100386.00;;;-6.79;100.00
53011;BME280;42803;55.762;38.084;2023-02-17T06:12:41;100383.00;;;-6.82;100.00
53011;BME280;42803;55.762;38.084;2023-02-17T06:15:10;100384.44;;;-6.79;100.00
53011;BME280;42803;55.762;38.084;2023-02-17T06:17:39;100393.69;;;-6.74;100.00
53011;BME280;42803;55.762;38.084;2023-02-17T06:20:09;100386.81;;;-6.64;100.00
53011;BME280;42803;55.762;38.084;2023-02-17T06:22:40;100386.19;;;-6.51;100.00
53011;BME280;42803;55.762;38.084;2023-02-17T06:25:09;100387.59;;;-6.48;100.00
53011;BME280;42803;55.762;38.084;2023-02-17T06:27:40;100384.19;;;-6.37;100.00
53011;BME280;42803;55.762;38.084;2023-02-17T06:30:11;100383.06;;;-6.28;100.00
53011;BME280;42803;55.762;38.084;2023-02-17T06:32:41;100381.72;;;-6.15;100.00
53011;BME280;42803;55.762;38.084;2023-02-17T06:35:10;100379.94;;;-6.04;99.78
53011;BME280;42803;55.762;38.084;2023-02-17T06:37:41;100374.88;;;-5.88;99.01
53011;BME280;42803;55.762;38.084;2023-02-17T06:40:10;100375.09;;;-5.80;98.20
53011;BME280;42803;55.762;38.084;2023-02-17T06:42:39;100372.59;;;-5.75;97.52
53011;BME280;42803;55.762;38.084;2023-02-17T06:45:09;100380.94;;;-5.65;96.83
53011;BME280;42803;55.762;38.084;2023-02-17T06:47:38;100380.00;;;-5.54;96.45
53011;BME280;42803;55.762;38.084;2023-02-17T06:50:08;100378.88;;;-5.45;96.09
53011;BME280;42803;55.762;38.084;2023-02-17T06:52:37;100380.03;;;-5.31;95.28
53011;BME280;42803;55.762;38.084;2023-02-17T06:55:08;100383.75;;;-5.24;94.76
53011;BME280;42803;55.762;38.084;2023-02-17T06:57:37;100379.34;;;-5.25;94.18
53011;BME280;42803;55.762;38.084;2023-02-17T07:00:07;100383.28;;;-5.16;93.51
53011;BME280;42803;55.762;38.084;2023-02-17T07:02:36;100380.50;;;-5.11;93.12
53011;BME280;42803;55.762;38.084;2023-02-17T07:05:06;100373.56;;;-5.12;93.27
53011;BME280;42803;55.762;38.084;2023-02-17T07:07:36;100375.91;;;-5.03;92.72
53011;BME280;42803;55.762;38.084;2023-02-17T07:10:06;100374.97;;;-4.92;92.43
53011;BME280;42803;55.762;38.084;2023-02-17T07:12:37;100367.97;;;-4.82;92.09
53011;BME280;42803;55.762;38.084;2023-02-17T07:15:06;100366.13;;;-4.72;91.64
53011;BME280;42803;55.762;38.084;2023-02-17T07:17:39;100368.66;;;-4.72;90.81
53011;BME280;42803;55.762;38.084;2023-02-17T07:20:09;100370.72;;;-4.63;90.81
53011;BME280;42803;55.762;38.084;2023-02-17T07:22:38;100367.50;;;-4.68;90.28
53011;BME280;42803;55.762;38.084;2023-02-17T07:25:09;100369.13;;;-4.69;90.29
53011;BME280;42803;55.762;38.084;2023-02-17T07:27:40;100369.06;;;-4.52;90.21
53011;BME280;42803;55.762;38.084;2023-02-17T07:30:10;100357.22;;;-4.34;89.76
53011;BME280;42803;55.762;38.084;2023-02-17T07:32:39;100361.31;;;-4.24;88.92
53011;BME280;42803;55.762;38.084;2023-02-17T07:35:08;100349.50;;;-4.18;88.70
53011;BME280;42803;55.762;38.084;2023-02-17T07:37:37;100346.38;;;-3.98;88.14
53011;BME280;42803;55.762;38.084;2023-02-17T07:40:07;100343.56;;;-3.88;87.66
53011;BME280;42803;55.762;38.084;2023-02-17T07:42:37;100345.19;;;-3.54;86.63
53011;BME280;42803;55.762;38.084;2023-02-17T07:45:09;100344.78;;;-3.33;87.11
53011;BME280;42803;55.762;38.084;2023-02-17T07:47:38;100347.00;;;-3.17;84.49
53011;BME280;42803;55.762;38.084;2023-02-17T07:50:07;100346.63;;;-3.02;83.20
53011;BME280;42803;55.762;38.084;2023-02-17T07:52:37;100346.50;;;-3.39;81.56
53011;BME280;42803;55.762;38.084;2023-02-17T07:55:09;100340.38;;;-3.63;81.36
53011;BME280;42803;55.762;38.084;2023-02-17T07:57:39;100341.97;;;-3.29;81.49
53011;BME280;42803;55.762;38.084;2023-02-17T08:00:11;100339.25;;;-3.36;80.33
53011;BME280;42803;55.762;38.084;2023-02-17T08:02:44;100335.69;;;-3.25;80.51
53011;BME280;42803;55.762;38.084;2023-02-17T08:05:13;100343.75;;;-3.16;79.70
53011;BME280;42803;55.762;38.084;2023-02-17T08:07:42;100332.25;;;-2.78;78.96
53011;BME280;42803;55.762;38.084;2023-02-17T08:10:12;100337.75;;;-2.93;78.03
53011;BME280;42803;55.762;38.084;2023-02-17T08:12:58;100331.53;;;-3.01;77.73
53011;BME280;42803;55.762;38.084;2023-02-17T08:15:46;100329.19;;;-2.99;78.14
53011;BME280;42803;55.762;38.084;2023-02-17T08:18:15;100325.41;;;-2.90;77.73
53011;BME280;42803;55.762;38.084;2023-02-17T08:20:44;100329.50;;;-2.61;78.31
53011;BME280;42803;55.762;38.084;2023-02-17T08:23:13;100325.69;;;-2.52;77.54
53011;BME280;42803;55.762;38.084;2023-02-17T08:25:43;100327.88;;;-2.42;77.34
53011;BME280;42803;55.762;38.084;2023-02-17T08:28:14;100330.13;;;-2.75;76.86
53011;BME280;42803;55.762;38.084;2023-02-17T08:30:45;100334.47;;;-2.92;76.68
53011;BME280;42803;55.762;38.084;2023-02-17T08:33:15;100340.41;;;-3.04;77.27
53011;BME280;42803;55.762;38.084;2023-02-17T08:35:45;100335.66;;;-3.20;77.58
53011;BME280;42803;55.762;38.084;2023-02-17T08:38:15;100337.47;;;-3.42;77.99
53011;BME280;42803;55.762;38.084;2023-02-17T08:40:44;100343.75;;;-3.46;78.25
53011;BME280;42803;55.762;38.084;2023-02-17T08:43:14;100339.44;;;-3.29;78.41
53011;BME280;42803;55.762;38.084;2023-02-17T08:45:43;100330.75;;;-2.94;78.14
53011;BME280;42803;55.762;38.084;2023-02-17T08:48:15;100334.56;;;-3.27;77.93
53011;BME280;42803;55.762;38.084;2023-02-17T08:50:46;100323.91;;;-3.60;79.10
53011;BME280;42803;55.762;38.084;2023-02-17T08:53:15;100328.53;;;-3.93;79.18
53011;BME280;42803;55.762;38.084;2023-02-17T08:55:45;100330.53;;;-4.20;79.84
53011;BME280;42803;55.762;38.084;2023-02-17T08:58:16;100326.09;;;-4.15;80.77
53011;BME280;42803;55.762;38.084;2023-02-17T09:00:46;100326.06;;;-4.09;80.81
53011;BME280;42803;55.762;38.084;2023-02-17T09:03:18;100327.22;;;-4.07;80.67
53011;BME280;42803;55.762;38.084;2023-02-17T09:05:47;100328.91;;;-4.19;80.73
53011;BME280;42803;55.762;38.084;2023-02-17T09:08:17;100333.78;;;-4.26;80.98
53011;BME280;42803;55.762;38.084;2023-02-17T09:10:47;100326.13;;;-3.85;83.72
53011;BME280;42803;55.762;38.084;2023-02-17T09:13:16;100325.66;;;-3.18;83.11
53011;BME280;42803;55.762;38.084;2023-02-17T09:15:46;100316.41;;;-2.99;80.19
53011;BME280;42803;55.762;38.084;2023-02-17T09:18:20;100313.16;;;-2.98;78.85
53011;BME280;42803;55.762;38.084;2023-02-17T09:20:50;100320.13;;;-2.97;78.04
53011;BME280;42803;55.762;38.084;2023-02-17T09:23:19;100316.75;;;-2.85;77.30
53011;BME280;42803;55.762;38.084;2023-02-17T09:25:48;100314.91;;;-2.86;77.05
53011;BME280;42803;55.762;38.084;2023-02-17T09:28:17;100312.38;;;-2.86;76.60
53011;BME280;42803;55.762;38.084;2023-02-17T09:30:47;100304.81;;;-2.79;76.56
53011;BME280;42803;55.762;38.084;2023-02-17T09:33:16;100307.38;;;-2.79;76.11
53011;BME280;42803;55.762;38.084;2023-02-17T09:35:47;100299.03;;;-2.78;75.76
53011;BME280;42803;55.762;38.084;2023-02-17T09:38:17;100290.31;;;-2.67;76.06
53011;BME280;42803;55.762;38.084;2023-02-17T09:40:47;100291.41;;;-2.59;75.65
53011;BME280;42803;55.762;38.084;2023-02-17T09:43:23;100285.00;;;-2.50;75.92
53011;BME280;42803;55.762;38.084;2023-02-17T09:45:59;100287.00;;;-2.42;75.32
53011;BME280;42803;55.762;38.084;2023-02-17T09:48:32;100284.13;;;-2.01;75.47
53011;BME280;42803;55.762;38.084;2023-02-17T09:51:05;100276.59;;;-1.94;74.13
53011;BME280;42803;55.762;38.084;2023-02-17T09:53:41;100277.41;;;-1.88;73.72
53011;BME280;42803;55.762;38.084;2023-02-17T09:56:17;100282.09;;;-1.91;74.05
53011;BME280;42803;55.762;38.084;2023-02-17T09:58:51;100274.97;;;-1.81;73.61
53011;BME280;42803;55.762;38.084;2023-02-17T10:01:28;100275.91;;;-2.11;73.71
53011;BME280;42803;55.762;38.084;2023-02-17T10:04:10;100277.34;;;-2.13;73.65
53011;BME280;42803;55.762;38.084;2023-02-17T10:06:47;100271.38;;;-2.19;74.29
53011;BME280;42803;55.762;38.084;2023-02-17T10:09:22;100272.22;;;-2.13;75.56
53011;BME280;42803;55.762;38.084;2023-02-17T10:11:58;100273.34;;;-2.30;74.30
53011;BME280;42803;55.762;38.084;2023-02-17T10:14:32;100269.53;;;-2.21;74.19
53011;BME280;42803;55.762;38.084;2023-02-17T10:17:04;100260.81;;;-1.97;75.34
53011;BME280;42803;55.762;38.084;2023-02-17T10:19:38;100270.94;;;-1.91;74.10
53011;BME280;42803;55.762;38.084;2023-02-17T10:22:17;100266.06;;;-1.90;73.58
53011;BME280;42803;55.762;38.084;2023-02-17T10:24:47;100264.41;;;-1.58;76.08
53011;BME280;42803;55.762;38.084;2023-02-17T10:27:36;100271.31;;;-1.83;75.58
53011;BME280;42803;55.762;38.084;2023-02-17T10:30:20;100267.06;;;-1.64;76.70
53011;BME280;42803;55.762;38.084;2023-02-17T10:32:59;100262.09;;;-1.44;76.44
53011;BME280;42803;55.762;38.084;2023-02-17T10:35:40;100258.91;;;-1.36;76.10
53011;BME280;42803;55.762;38.084;2023-02-17T10:38:17;100262.75;;;-1.70;74.61
53011;BME280;42803;55.762;38.084;2023-02-17T10:40:49;100255.53;;;-1.86;73.94
53011;BME280;42803;55.762;38.084;2023-02-17T10:43:23;100251.34;;;-2.16;74.33
53011;BME280;42803;55.762;38.084;2023-02-17T10:45:57;100250.47;;;-2.23;74.17
53011;BME280;42803;55.762;38.084;2023-02-17T10:48:32;100249.66;;;-2.29;76.32
53011;BME280;42803;55.762;38.084;2023-02-17T10:51:05;100249.56;;;-2.60;75.70
53011;BME280;42803;55.762;38.084;2023-02-17T10:53:38;100242.59;;;-2.98;76.25
53011;BME280;42803;55.762;38.084;2023-02-17T10:56:11;100247.38;;;-2.70;76.86
53011;BME280;42803;55.762;38.084;2023-02-17T10:58:51;100246.59;;;-2.81;76.82
53011;BME280;42803;55.762;38.084;2023-02-17T11:01:21;100240.72;;;-2.75;77.50
53011;BME280;42803;55.762;38.084;2023-02-17T11:04:02;100248.50;;;-2.67;77.72
53011;BME280;42803;55.762;38.084;2023-02-17T11:06:35;100235.16;;;-2.78;77.47
53011;BME280;42803;55.762;38.084;2023-02-17T11:09:17;100240.19;;;-2.72;77.25
53011;BME280;42803;55.762;38.084;2023-02-17T11:11:53;100236.72;;;-2.73;76.89
53011;BME280;42803;55.762;38.084;2023-02-17T11:14:26;100230.47;;;-2.56;77.18
53011;BME280;42803;55.762;38.084;2023-02-17T11:16:57;100232.03;;;-2.70;77.45
53011;BME280;42803;55.762;38.084;2023-02-17T11:19:29;100233.72;;;-2.76;77.24
53011;BME280;42803;55.762;38.084;2023-02-17T11:22:04;100226.50;;;-2.54;77.55
53011;BME280;42803;55.762;38.084;2023-02-17T11:24:36;100225.97;;;-2.33;77.43
53011;BME280;42803;55.762;38.084;2023-02-17T11:27:09;100229.75;;;-2.37;76.62
53011;BME280;42803;55.762;38.084;2023-02-17T11:29:39;100223.38;;;-2.46;76.83
53011;BME280;42803;55.762;38.084;2023-02-17T11:32:10;100224.22;;;-2.40;76.91
53011;BME280;42803;55.762;38.084;2023-02-17T11:34:42;100214.25;;;-2.26;76.22
53011;BME280;42803;55.762;38.084;2023-02-17T11:37:19;100207.78;;;-2.29;76.15
53011;BME280;42803;55.762;38.084;2023-02-17T11:39:51;100212.50;;;-2.32;76.43
53011;BME280;42803;55.762;38.084;2023-02-17T11:42:22;100215.97;;;-2.32;76.79
53011;BME280;42803;55.762;38.084;2023-02-17T11:44:53;100216.03;;;-2.19;76.22
53011;BME280;42803;55.762;38.084;2023-02-17T11:47:29;100209.78;;;-2.21;76.52
53011;BME280;42803;55.762;38.084;2023-02-17T11:50:21;100217.16;;;-2.17;75.72
53011;BME280;42803;55.762;38.084;2023-02-17T11:53:19;100205.78;;;-2.19;75.58
53011;BME280;42803;55.762;38.084;2023-02-17T11:56:01;100211.84;;;-2.37;75.51
53011;BME280;42803;55.762;38.084;2023-02-17T11:58:55;100202.34;;;-2.38;74.97
53011;BME280;42803;55.762;38.084;2023-02-17T12:01:39;100202.69;;;-2.29;74.34
53011;BME280;42803;55.762;38.084;2023-02-17T12:04:24;100191.47;;;-2.24;74.44
53011;BME280;42803;55.762;38.084;2023-02-17T12:09:51;100189.81;;;-2.24;75.23
53011;BME280;42803;55.762;38.084;2023-02-17T12:12:35;100187.69;;;-2.21;75.03
53011;BME280;42803;55.762;38.084;2023-02-17T12:15:23;100188.03;;;-2.43;74.78
53011;BME280;42803;55.762;38.084;2023-02-17T12:18:03;100185.31;;;-2.50;75.09
53011;BME280;42803;55.762;38.084;2023-02-17T12:20:45;100186.72;;;-2.52;75.19
53011;BME280;42803;55.762;38.084;2023-02-17T12:23:29;100193.28;;;-2.54;75.00
53011;BME280;42803;55.762;38.084;2023-02-17T12:26:02;100194.69;;;-2.56;74.81
53011;BME280;42803;55.762;38.084;2023-02-17T12:28:44;100189.09;;;-2.54;74.81
53011;BME280;42803;55.762;38.084;2023-02-17T12:31:28;100184.47;;;-2.56;75.31
53011;BME280;42803;55.762;38.084;2023-02-17T12:34:11;100183.53;;;-2.57;75.44
53011;BME280;42803;55.762;38.084;2023-02-17T12:36:43;100178.53;;;-2.62;75.59
53011;BME280;42803;55.762;38.084;2023-02-17T12:39:16;100181.88;;;-2.69;75.75
53011;BME280;42803;55.762;38.084;2023-02-17T12:41:48;100186.19;;;-2.81;75.97
53011;BME280;42803;55.762;38.084;2023-02-17T12:44:22;100182.50;;;-2.83;76.44
53011;BME280;42803;55.762;38.084;2023-02-17T12:46:55;100184.75;;;-2.79;76.82
53011;BME280;42803;55.762;38.084;2023-02-17T12:49:29;100183.97;;;-2.90;77.07
53011;BME280;42803;55.762;38.084;2023-02-17T12:52:04;100180.31;;;-2.92;78.05
53011;BME280;42803;55.762;38.084;2023-02-17T12:54:37;100182.22;;;-2.97;77.94
53011;BME280;42803;55.762;38.084;2023-02-17T12:57:12;100178.22;;;-2.95;78.25
53011;BME280;42803;55.762;38.084;2023-02-17T12:59:45;100182.28;;;-3.03;78.38
53011;BME280;42803;55.762;38.084;2023-02-17T13:02:16;100184.97;;;-2.96;78.66
53011;BME280;42803;55.762;38.084;2023-02-17T13:04:49;100189.66;;;-2.99;78.89
53011;BME280;42803;55.762;38.084;2023-02-17T13:07:31;100186.59;;;-3.14;79.06